createdAt,value
2023-01-01T02:32:33.740Z,94614.66
2023-01-01T02:35:23.261Z,94603.56
2023-01-01T02:37:54.551Z,94623.19
2023-01-01T02:40:25.131Z,94620.88
2023-01-01T02:42:53.387Z,94618.63
2023-01-01T02:45:21.878Z,94621.53
2023-01-01T02:47:48.435Z,94620.72
2023-01-01T02:50:25.942Z,94622.56
2023-01-01T02:53:06.899Z,94629.22
2023-01-01T02:55:52.108Z,94642.91
2023-01-01T02:58:40.532Z,94631.63
2023-01-01T03:01:17.904Z,94628.84
2023-01-01T03:03:52.869Z,94638.25
2023-01-01T03:06:28.702Z,94619.19
2023-01-01T03:08:55.595Z,94626.22
2023-01-01T03:11:24.018Z,94622.63
2023-01-01T03:13:59.969Z,94624.94
2023-01-01T03:16:26.655Z,94627.91
2023-01-01T03:19:13.541Z,94636.34
2023-01-01T03:21:55.666Z,94627.69
2023-01-01T03:24:30.251Z,94625.13
2023-01-01T03:27:02.566Z,94627.72
2023-01-01T03:29:32.158Z,94646.28
2023-01-01T03:32:02.282Z,94645.28
2023-01-01T03:34:34.217Z,94653.44
2023-01-01T03:37:05.253Z,94647.53
2023-01-01T03:45:01.894Z,94674.72
2023-01-01T03:47:29.748Z,94663.84
2023-01-01T03:50:00.097Z,94660.63
2023-01-01T03:52:34.614Z,94662.06
2023-01-01T03:55:13.389Z,94662.13
2023-01-01T03:57:58.793Z,94672.84
2023-01-01T04:00:28.292Z,94676.72
2023-01-01T04:02:55.075Z,94676.88
2023-01-01T04:05:22.266Z,94690.22
2023-01-01T04:10:17.734Z,94713.56
2023-01-01T04:12:47.889Z,94712.84
2023-01-01T04:15:14.999Z,94712.31
2023-01-01T04:17:42.009Z,94716.53
2023-01-01T04:20:11.301Z,94721.44
2023-01-01T04:22:38.274Z,94725.25
2023-01-01T04:25:07.610Z,94732.19
2023-01-01T04:27:34.253Z,94729.16
2023-01-01T04:30:01.469Z,94728.63
2023-01-01T04:32:29.420Z,94742.63
2023-01-01T04:34:56.245Z,94745.13
2023-01-01T05:38:33.563Z,94811.75
2023-01-01T05:41:05.866Z,94810.16
2023-01-01T05:43:32.380Z,94824.78
2023-01-01T05:46:06.447Z,94843.63
2023-01-01T05:48:34.711Z,94848.25
2023-01-01T05:51:05.290Z,94854.06
2023-01-01T05:53:32.041Z,94869.72
2023-01-01T05:55:58.778Z,94901.69
2023-01-01T05:58:25.404Z,94909.09
2023-01-01T06:00:52.009Z,94900.09
2023-01-01T06:03:18.878Z,94894.34
2023-01-01T06:05:45.434Z,94912.16
2023-01-01T06:08:12.218Z,94908.63
2023-01-01T06:10:38.892Z,94912.09
2023-01-01T06:13:11.164Z,94908.72
2023-01-01T06:15:41.472Z,94917.94
2023-01-01T06:18:08.100Z,94915.03
2023-01-01T06:20:36.793Z,94911.38
2023-01-01T06:23:03.497Z,94926.63
2023-01-01T06:25:29.954Z,94946.31
2023-01-01T06:27:56.501Z,94950.94
2023-01-01T06:30:23.060Z,94960.56
2023-01-01T06:32:49.771Z,94962.19
2023-01-01T06:35:16.397Z,94950.16
2023-01-01T06:40:10.092Z,94954.88
2023-01-01T06:42:36.794Z,94959.94
2023-01-01T06:45:03.527Z,94954.06
2023-01-01T06:47:33.310Z,94958.19
2023-01-01T06:49:59.806Z,94963.31
2023-01-01T06:52:26.317Z,94962.91
2023-01-01T06:54:52.894Z,94967.81
2023-01-01T06:57:20.249Z,94959.94
2023-01-01T06:59:46.778Z,94969.47
2023-01-01T07:02:13.913Z,94962.19
2023-01-01T07:04:40.526Z,94975.38
2023-01-01T07:07:07.038Z,94982.53
2023-01-01T07:09:33.695Z,94986.47
2023-01-01T07:12:00.195Z,94982.59
2023-01-01T07:14:26.773Z,94992.66
2023-01-01T07:16:53.220Z,95006.19
2023-01-01T07:19:19.746Z,95019.22
2023-01-01T07:21:54.223Z,95024.34
2023-01-01T07:24:20.829Z,95030.41
2023-01-01T07:26:47.396Z,95027.31
2023-01-01T07:29:13.990Z,95032.94
2023-01-01T07:31:41.418Z,95057.41
2023-01-01T07:34:09.840Z,95074.13
2023-01-01T07:36:36.285Z,95088.59
2023-01-01T07:39:03.762Z,95097.69
2023-01-01T07:41:31.203Z,95105.41
2023-01-01T07:43:57.822Z,95108.13
2023-01-01T07:46:25.303Z,95116.94
2023-01-01T07:48:51.835Z,95141.28
2023-01-01T07:51:18.384Z,95157.78
2023-01-01T07:53:44.977Z,95163.38
2023-01-01T07:56:11.458Z,95169.66
2023-01-01T07:58:41.420Z,95180.31
2023-01-01T08:01:09.875Z,95182.31
2023-01-01T08:03:36.493Z,95201.03
2023-01-01T08:06:07.299Z,95212.88
2023-01-01T08:08:33.831Z,95228.78
2023-01-01T08:11:03.836Z,95254.19
2023-01-01T08:13:30.864Z,95275.06
2023-01-01T08:15:58.179Z,95291.84
2023-01-01T08:32:10.994Z,95542.28
2023-01-01T08:34:38.348Z,95575.75
2023-01-01T08:37:05.062Z,95580.59
2023-01-01T08:39:31.822Z,95610.53
2023-01-01T08:41:58.670Z,95621.84
2023-01-01T08:44:25.384Z,95614.72
2023-01-01T08:46:54.944Z,95583.34
2023-01-01T08:49:22.605Z,95544.38
2023-01-01T08:51:49.623Z,95508.19
2023-01-01T08:54:16.488Z,95495.63
2023-01-01T08:56:43.252Z,95475.25
2023-01-01T08:59:12.212Z,95480.69
2023-01-01T09:01:39.127Z,95480.56
2023-01-01T09:04:15.186Z,95462.38
2023-01-01T09:06:42.497Z,95456.25
2023-01-01T09:09:09.284Z,95456.81
2023-01-01T09:11:36.706Z,95429.41
2023-01-01T09:14:03.553Z,95428.19
2023-01-01T09:16:30.334Z,95447.84
2023-01-01T09:18:57.149Z,95462.94
2023-01-01T09:21:23.815Z,95470.81
2023-01-01T09:23:50.814Z,95473.03
2023-01-01T09:26:17.600Z,95452.94
2023-01-01T09:28:44.419Z,95437.38
2023-01-01T09:31:11.087Z,95433.41
2023-01-01T09:33:38.419Z,95429.66
2023-01-01T09:36:12.062Z,95457.72
2023-01-01T09:38:38.856Z,95488.31
2023-01-01T09:41:21.058Z,95495.53
2023-01-01T09:44:06.612Z,95484.22
2023-01-01T09:46:33.612Z,95508.19
2023-01-01T09:49:03.659Z,95563.59
2023-01-01T09:51:38.784Z,95632.03
2023-01-01T09:54:13.151Z,95711.69
2023-01-01T09:56:43.179Z,95761.28
2023-01-01T09:59:13.230Z,95809.28
2023-01-01T10:01:45.163Z,95889.03
2023-01-01T10:04:18.044Z,95941.78
2023-01-01T10:06:50.581Z,95954.31
2023-01-01T10:09:23.302Z,95952.53
2023-01-01T10:11:56.328Z,95940.66
2023-01-01T10:14:30.845Z,95894.28
2023-01-01T10:16:59.443Z,95916.34
2023-01-01T10:19:44.996Z,95867.47
2023-01-01T10:22:27.810Z,95798.59
2023-01-01T10:25:00.292Z,95768.78
2023-01-01T10:27:40.728Z,95758.00
2023-01-01T10:30:15.224Z,95827.69
2023-01-01T10:32:43.575Z,95900.63
2023-01-01T10:35:13.263Z,95979.38
2023-01-01T18:08:37.665Z,96207.19
2023-01-01T18:11:04.235Z,96251.06
2023-01-01T18:13:31.020Z,96270.81
2023-01-01T18:16:01.596Z,96284.56
2023-01-01T18:18:31.038Z,96265.00
2023-01-01T18:21:01.780Z,96264.00
2023-01-01T18:23:33.388Z,96248.81
2023-01-01T18:26:01.022Z,96229.47
2023-01-01T18:28:27.503Z,96219.75
2023-01-01T18:30:54.066Z,96218.53
2023-01-01T18:33:20.822Z,96255.78
2023-01-01T18:35:47.269Z,96278.28
2023-01-01T18:38:14.260Z,96287.31
2023-01-01T18:40:47.648Z,96281.75
2023-01-01T18:43:21.617Z,96269.56
2023-01-01T18:45:48.132Z,96259.06
2023-01-01T18:48:16.158Z,96256.34
2023-01-01T18:50:42.660Z,96279.91
2023-01-01T18:53:09.116Z,96302.66
2023-01-01T18:55:35.729Z,96285.66
2023-01-01T18:58:14.009Z,96293.13
2023-01-01T19:00:40.613Z,96291.75
2023-01-01T19:03:14.633Z,96287.47
2023-01-01T19:05:41.196Z,96301.41
2023-01-01T19:08:07.700Z,96294.59
2023-01-01T19:10:40.276Z,96258.06
2023-01-01T19:13:16.544Z,96249.63
2023-01-01T19:15:55.189Z,96266.59
2023-01-01T19:18:24.989Z,96362.19
2023-01-01T19:21:09.966Z,96428.03
2023-01-01T19:23:49.452Z,96444.66
2023-01-01T19:26:30.040Z,96427.50
2023-01-01T19:28:57.840Z,96415.53
2023-01-01T19:31:24.494Z,96363.56
2023-01-01T19:33:51.262Z,96374.31
2023-01-01T19:36:17.799Z,96355.09
2023-01-01T19:38:44.289Z,96344.06
2023-01-01T19:41:11.212Z,96338.78
2023-01-01T19:43:37.999Z,96360.34
2023-01-01T19:46:04.658Z,96375.25
2023-01-01T19:48:31.273Z,96346.47
2023-01-01T19:50:57.873Z,96359.03
2023-01-01T19:53:24.344Z,96351.66
2023-01-01T19:55:50.884Z,96381.94
2023-01-01T19:58:22.013Z,96415.19
2023-01-01T20:00:48.909Z,96427.81
2023-01-01T20:06:02.113Z,96404.59
2023-01-01T20:08:30.992Z,96427.00
2023-01-01T20:10:57.573Z,96432.53
2023-01-01T20:13:24.334Z,96428.28
2023-01-01T20:15:51.372Z,96381.66
2023-01-01T20:18:17.872Z,96365.28
2023-01-01T20:21:03.200Z,96399.00
2023-01-01T20:23:29.961Z,96407.94
2023-01-01T20:25:56.490Z,96428.31
2023-01-01T20:28:41.705Z,96449.16
2023-01-01T20:31:08.290Z,96459.94
2023-01-01T20:33:34.874Z,96469.94
2023-01-01T20:36:20.167Z,96479.94
2023-01-01T20:38:46.631Z,96512.53
2023-01-01T20:41:25.459Z,96513.06
2023-01-01T20:43:59.800Z,96538.25
2023-01-01T20:46:26.537Z,96536.66
2023-01-01T20:48:53.696Z,96538.81
2023-01-01T20:51:20.150Z,96533.06
2023-01-01T20:53:46.692Z,96518.63
2023-01-01T20:56:13.202Z,96536.22
2023-01-01T20:58:45.935Z,96553.00
2023-01-01T21:01:15.076Z,96550.91
2023-01-01T21:03:41.699Z,96564.84
2023-01-01T21:06:08.270Z,96577.19
2023-01-01T21:08:34.826Z,96569.34
2023-01-01T21:11:02.100Z,96561.78
2023-01-01T21:13:28.541Z,96568.34
2023-01-01T21:15:57.452Z,96555.25
2023-01-01T21:18:24.368Z,96556.81
2023-01-01T21:20:50.875Z,96541.00
2023-01-01T21:23:24.124Z,96571.56
2023-01-01T21:25:52.241Z,96570.53
2023-01-01T21:28:19.173Z,96568.69
2023-01-01T21:30:50.846Z,96540.72
2023-01-01T21:33:30.491Z,96519.84
2023-01-01T21:35:57.447Z,96516.19
2023-01-01T21:38:27.804Z,96579.47
2023-01-01T21:40:54.932Z,96614.72
2023-01-01T21:43:27.314Z,96608.91
2023-01-01T21:45:54.750Z,96629.59
2023-01-01T21:48:28.855Z,96617.22
2023-01-01T21:50:57.233Z,96614.06
2023-01-01T21:53:30.645Z,96615.91
2023-01-01T21:55:57.451Z,96598.81
2023-01-01T21:58:48.629Z,96602.25
2023-01-01T22:01:23.245Z,96608.69
2023-01-01T22:03:51.167Z,96600.34
2023-01-01T22:06:19.613Z,96585.19
2023-01-01T22:08:46.333Z,96547.63
2023-01-01T22:11:26.570Z,96547.38
2023-01-01T22:13:53.417Z,96530.75
2023-01-01T22:16:26.755Z,96521.50
2023-01-01T22:18:53.332Z,96529.97
2023-01-01T22:21:21.542Z,96555.78
2023-01-01T22:23:48.131Z,96601.56
2023-01-01T22:26:19.748Z,96584.72
2023-01-01T22:28:49.519Z,96598.38
2023-01-01T22:31:24.107Z,96605.72
2023-01-01T22:33:54.041Z,96663.88
2023-01-01T22:36:33.589Z,96722.81
2023-01-01T22:39:10.326Z,96729.97
2023-01-01T22:41:36.785Z,96745.41
2023-01-01T22:44:04.079Z,96680.56
2023-01-01T22:46:34.601Z,96633.63
2023-01-01T22:49:05.512Z,96624.72
2023-01-01T22:51:42.699Z,96588.19
2023-01-01T22:54:09.226Z,96641.31
2023-01-01T22:56:37.955Z,96676.75
2023-01-01T22:59:04.492Z,96705.16
2023-01-01T23:01:33.235Z,96743.25
2023-01-01T23:04:01.494Z,96763.94
2023-01-01T23:06:30.000Z,96764.00
2023-01-01T23:08:57.574Z,96775.22
2023-01-01T23:11:24.944Z,96789.88
2023-01-01T23:14:10.385Z,96749.28
2023-01-01T23:16:37.350Z,96678.25
2023-01-01T23:19:04.214Z,96642.56
2023-01-01T23:21:31.829Z,96664.44
2023-01-01T23:23:59.190Z,96714.56
2023-01-01T23:26:25.834Z,96721.41
2023-01-01T23:28:53.218Z,96739.25
2023-01-01T23:31:25.108Z,96741.66
2023-01-01T23:33:52.289Z,96735.44
2023-01-01T23:36:18.888Z,96752.41
2023-01-01T23:38:45.666Z,96744.13
2023-01-01T23:41:12.116Z,96729.03
2023-01-01T23:43:43.261Z,96749.28
2023-01-01T23:46:11.340Z,96750.00
2023-01-01T23:48:37.876Z,96738.78
2023-01-01T23:51:05.253Z,96739.38
2023-01-01T23:53:31.937Z,96738.38
2023-01-01T23:55:58.392Z,96733.13
2023-01-01T23:58:24.839Z,96727.44
